createdAt,value
2023-02-11T00:00:50.335Z,2.03
2023-02-11T00:03:23.211Z,2.01
2023-02-11T00:06:01.138Z,2.00
2023-02-11T00:08:33.677Z,2.03
2023-02-11T00:11:06.609Z,2.05
2023-02-11T00:13:39.492Z,2.06
2023-02-11T00:16:14.801Z,2.06
2023-02-11T00:18:47.320Z,2.04
2023-02-11T00:21:25.914Z,2.02
2023-02-11T00:24:00.143Z,2.03
2023-02-11T00:26:35.903Z,2.01
2023-02-11T00:29:09.099Z,2.03
2023-02-11T00:31:42.074Z,2.06
2023-02-11T00:34:14.971Z,2.07
2023-02-11T00:36:49.538Z,2.06
2023-02-11T00:39:21.915Z,2.05
2023-02-11T00:41:54.850Z,2.06
2023-02-11T00:44:27.162Z,2.05
2023-02-11T00:46:59.580Z,2.06
2023-02-11T00:49:32.098Z,2.04
2023-02-11T00:52:05.238Z,1.97
2023-02-11T00:54:38.620Z,1.95
2023-02-11T00:57:11.257Z,1.97
2023-02-11T00:59:43.760Z,1.93
2023-02-11T01:02:16.199Z,1.94
2023-02-11T01:04:48.827Z,1.94
2023-02-11T01:07:21.497Z,1.94
2023-02-11T01:09:53.981Z,1.94
2023-02-11T01:12:26.526Z,1.87
2023-02-11T01:14:59.592Z,1.83
2023-02-11T01:17:42.740Z,1.83
2023-02-11T01:20:25.127Z,1.80
2023-02-11T01:22:57.828Z,1.82
2023-02-11T01:25:30.264Z,1.82
2023-02-11T01:28:03.066Z,1.83
2023-02-11T01:30:35.649Z,1.86
2023-02-11T01:33:08.808Z,1.82
2023-02-11T01:35:42.336Z,1.75
2023-02-11T01:38:24.359Z,1.75
2023-02-11T01:41:06.898Z,1.79
2023-02-11T01:43:43.967Z,1.78
2023-02-11T01:46:35.240Z,1.79
2023-02-11T01:49:24.651Z,1.79
2023-02-11T01:52:04.728Z,1.81
2023-02-11T01:54:58.912Z,1.77
2023-02-11T01:57:33.577Z,1.75
2023-02-11T02:00:28.500Z,1.72
2023-02-11T02:03:20.315Z,1.70
2023-02-11T02:06:04.824Z,1.68
2023-02-11T02:08:51.866Z,1.64
2023-02-11T02:11:25.098Z,1.63
2023-02-11T02:13:57.681Z,1.61
2023-02-11T02:16:34.807Z,1.60
2023-02-11T02:19:36.102Z,1.56
2023-02-11T02:22:18.930Z,1.51
2023-02-11T02:25:31.081Z,1.50
2023-02-11T02:28:29.893Z,1.47
2023-02-11T02:31:18.891Z,1.45
2023-02-11T02:34:04.353Z,1.44
2023-02-11T02:36:54.780Z,1.41
2023-02-11T02:39:30.562Z,1.41
2023-02-11T02:42:04.144Z,1.40
2023-02-11T02:44:36.898Z,1.38
2023-02-11T02:47:10.129Z,1.41
2023-02-11T02:49:42.700Z,1.40
2023-02-11T02:52:53.788Z,1.38
2023-02-11T02:55:54.862Z,1.37
2023-02-11T02:58:38.502Z,1.31
2023-02-11T03:01:38.664Z,1.27
2023-02-11T03:04:48.896Z,1.25
2023-02-11T03:07:32.079Z,1.25
2023-02-11T03:10:15.481Z,1.29
2023-02-11T03:12:49.094Z,1.29
2023-02-11T03:15:21.542Z,1.32
2023-02-11T03:17:55.412Z,1.33
2023-02-11T03:20:27.826Z,1.34
2023-02-11T03:23:11.721Z,1.36
2023-02-11T03:25:54.194Z,1.38
2023-02-11T03:28:33.449Z,1.38
2023-02-11T03:31:19.114Z,1.35
2023-02-11T03:34:05.642Z,1.36
2023-02-11T03:36:46.257Z,1.35
2023-02-11T03:39:26.077Z,1.35
2023-02-11T03:41:59.058Z,1.38
2023-02-11T03:44:36.073Z,1.38
2023-02-11T03:47:11.454Z,1.39
2023-02-11T03:49:43.992Z,1.43
2023-02-11T03:52:16.698Z,1.46
2023-02-11T03:54:50.746Z,1.49
2023-02-11T03:57:23.122Z,1.49
2023-02-11T03:59:58.495Z,1.52
2023-02-11T04:02:35.091Z,1.54
2023-02-11T04:05:08.902Z,1.60
2023-02-11T04:07:41.371Z,1.63
2023-02-11T04:10:14.564Z,1.63
2023-02-11T04:12:48.232Z,1.63
2023-02-11T04:15:21.212Z,1.66
2023-02-11T04:17:53.826Z,1.67
2023-02-11T04:20:26.736Z,1.70
2023-02-11T04:22:59.246Z,1.72
2023-02-11T04:25:32.162Z,1.74
2023-02-11T04:28:04.895Z,1.78
2023-02-11T04:30:37.617Z,1.81
2023-02-11T04:33:10.425Z,1.83
2023-02-11T04:35:44.604Z,1.83
2023-02-11T04:38:17.889Z,1.85
2023-02-11T04:40:51.273Z,1.82
2023-02-11T04:43:23.789Z,1.82
2023-02-11T04:46:20.035Z,1.80
2023-02-11T04:48:53.694Z,1.79
2023-02-11T04:51:26.431Z,1.79
2023-02-11T04:54:00.637Z,1.77
2023-02-11T04:56:33.712Z,1.77
2023-02-11T04:59:06.194Z,1.73
2023-02-11T05:01:39.584Z,1.66
2023-02-11T05:04:12.647Z,1.59
2023-02-11T05:06:45.798Z,1.56
2023-02-11T05:09:18.895Z,1.51
2023-02-11T05:11:51.890Z,1.49
2023-02-11T05:14:24.262Z,1.47
2023-02-11T05:16:56.757Z,1.46
2023-02-11T05:19:29.620Z,1.41
2023-02-11T05:22:03.836Z,1.39
2023-02-11T05:24:37.523Z,1.37
2023-02-11T05:27:10.019Z,1.34
2023-02-11T05:29:42.700Z,1.27
2023-02-11T05:32:15.075Z,1.24
2023-02-11T05:34:47.751Z,1.21
2023-02-11T05:37:21.590Z,1.24
2023-02-11T05:39:53.954Z,1.27
2023-02-11T05:42:26.718Z,1.30
2023-02-11T05:44:59.375Z,1.34
2023-02-11T05:47:32.246Z,1.35
2023-02-11T05:50:05.771Z,1.38
2023-02-11T05:52:38.532Z,1.38
2023-02-11T05:55:11.430Z,1.43
2023-02-11T05:57:43.825Z,1.49
2023-02-11T06:00:17.397Z,1.51
2023-02-11T06:02:50.052Z,1.54
2023-02-11T06:05:22.730Z,1.55
2023-02-11T06:07:55.839Z,1.60
2023-02-11T06:10:29.756Z,1.61
2023-02-11T06:13:02.914Z,1.68
2023-02-11T06:15:35.434Z,1.71
2023-02-11T06:18:08.254Z,1.78
2023-02-11T06:20:41.718Z,1.78
2023-02-11T06:23:14.195Z,1.80
2023-02-11T06:26:04.272Z,1.85
2023-02-11T06:28:41.672Z,1.84
2023-02-11T06:31:12.547Z,1.81
2023-02-11T06:33:45.143Z,1.83
2023-02-11T06:36:19.577Z,1.87
2023-02-11T06:38:52.668Z,1.98
2023-02-11T06:41:25.600Z,2.10
2023-02-11T06:43:58.168Z,2.16
2023-02-11T06:46:30.840Z,2.19
2023-02-11T06:49:03.390Z,2.23
2023-02-11T06:51:36.206Z,2.30
2023-02-11T06:54:08.788Z,2.28
2023-02-11T06:56:42.891Z,2.31
2023-02-11T06:59:21.912Z,2.32
2023-02-11T07:01:54.582Z,2.32
2023-02-11T07:04:27.017Z,2.32
2023-02-11T07:06:59.683Z,2.29
2023-02-11T07:09:32.229Z,2.23
2023-02-11T07:12:27.337Z,2.17
2023-02-11T07:15:00.193Z,2.16
2023-02-11T07:17:32.935Z,2.13
2023-02-11T07:20:07.469Z,2.08
2023-02-11T07:22:40.422Z,2.05
2023-02-11T07:25:12.793Z,2.03
2023-02-11T07:27:45.853Z,1.99
2023-02-11T07:30:18.459Z,1.93
2023-02-11T07:32:50.904Z,1.91
2023-02-11T07:35:24.281Z,1.91
2023-02-11T07:37:57.185Z,1.92
2023-02-11T07:40:31.774Z,1.94
2023-02-11T07:43:04.456Z,2.02
2023-02-11T07:45:39.708Z,2.08
2023-02-11T07:48:12.035Z,2.03
2023-02-11T07:50:45.403Z,2.03
2023-02-11T07:53:17.947Z,2.04
2023-02-11T07:55:51.436Z,2.10
2023-02-11T07:58:24.298Z,2.18
2023-02-11T08:00:59.001Z,2.29
2023-02-11T08:03:31.839Z,2.38
2023-02-11T08:06:13.324Z,2.38
2023-02-11T08:08:45.712Z,2.35
2023-02-11T08:11:28.202Z,2.34
2023-02-11T08:14:00.581Z,2.36
2023-02-11T08:16:35.309Z,2.43
2023-02-11T08:19:14.775Z,2.53
2023-02-11T08:21:47.234Z,2.60
2023-02-11T08:24:19.854Z,2.70
2023-02-11T08:26:54.117Z,2.81
2023-02-11T08:29:26.593Z,2.89
2023-02-11T08:31:58.968Z,2.87
2023-02-11T08:34:31.600Z,2.81
2023-02-11T08:37:04.395Z,2.77
2023-02-11T08:39:36.979Z,2.81
2023-02-11T08:42:09.547Z,2.82
2023-02-11T08:44:43.989Z,2.81
2023-02-11T08:47:16.452Z,2.76
2023-02-11T08:49:49.079Z,2.72
2023-02-11T08:52:21.829Z,2.72
2023-02-11T08:54:54.362Z,2.75
2023-02-11T08:57:27.010Z,2.71
2023-02-11T08:59:59.615Z,2.79
2023-02-11T09:02:32.032Z,2.85
2023-02-11T09:05:04.561Z,2.89
2023-02-11T09:07:38.595Z,2.91
2023-02-11T09:10:12.107Z,2.92
2023-02-11T09:12:44.417Z,2.94
2023-02-11T09:15:16.883Z,2.96
2023-02-11T09:17:49.230Z,3.01
2023-02-11T09:20:22.290Z,2.95
2023-02-11T09:22:55.440Z,2.93
2023-02-11T09:25:27.783Z,3.03
2023-02-11T09:28:00.629Z,3.11
2023-02-11T09:30:33.937Z,3.17
2023-02-11T09:33:07.057Z,3.17
2023-02-11T09:35:43.754Z,3.18
2023-02-11T09:38:16.896Z,3.20
2023-02-11T09:40:49.799Z,3.19
2023-02-11T09:43:32.506Z,3.19
2023-02-11T09:46:05.971Z,3.16
2023-02-11T09:48:42.163Z,3.13
2023-02-11T09:51:27.604Z,3.07
2023-02-11T09:54:05.447Z,3.00
2023-02-11T09:56:37.192Z,2.95
2023-02-11T09:59:17.883Z,2.96
2023-02-11T10:02:01.238Z,2.97
2023-02-11T10:04:58.362Z,3.00
2023-02-11T10:07:42.463Z,3.05
2023-02-11T10:10:39.508Z,3.10
2023-02-11T10:13:32.570Z,3.15
2023-02-11T10:16:39.287Z,3.23
2023-02-11T10:19:31.124Z,3.31
2023-02-11T10:22:19.974Z,3.43
2023-02-11T10:24:57.942Z,3.47
2023-02-11T10:27:35.358Z,3.47
2023-02-11T10:30:22.034Z,3.49
2023-02-11T10:33:23.008Z,3.56
2023-02-11T10:35:55.328Z,3.60
2023-02-11T10:38:29.008Z,3.59
2023-02-11T10:41:01.317Z,3.57
2023-02-11T10:43:34.049Z,3.54
2023-02-11T10:46:07.132Z,3.51
2023-02-11T10:48:52.961Z,3.49
2023-02-11T10:51:37.745Z,3.54
2023-02-11T10:54:15.243Z,3.57
2023-02-11T10:56:53.542Z,3.54
2023-02-11T10:59:37.046Z,3.55
2023-02-11T11:02:28.232Z,3.61
2023-02-11T11:05:08.025Z,3.70
2023-02-11T11:07:40.690Z,3.74
2023-02-11T11:10:32.670Z,3.82
2023-02-11T11:13:05.705Z,3.87
2023-02-11T11:15:38.199Z,3.94
2023-02-11T11:18:23.322Z,4.01
2023-02-11T11:21:25.375Z,4.10
2023-02-11T11:24:00.816Z,4.12
2023-02-11T11:26:49.092Z,4.10
2023-02-11T11:29:34.697Z,4.02
2023-02-11T11:32:28.300Z,3.97
2023-02-11T11:35:12.976Z,3.85
2023-02-11T11:37:46.221Z,3.70
2023-02-11T11:40:26.676Z,3.66
2023-02-11T11:43:22.663Z,3.64
2023-02-11T11:45:59.580Z,3.62
2023-02-11T11:48:39.478Z,3.57
2023-02-11T11:51:12.769Z,3.63
2023-02-11T11:54:10.186Z,3.76
2023-02-11T11:56:50.287Z,3.83
2023-02-11T11:59:23.062Z,3.93
2023-02-11T12:02:32.889Z,3.93
2023-02-11T12:05:27.353Z,3.87
2023-02-11T12:08:24.839Z,3.81
2023-02-11T12:11:23.383Z,3.76
2023-02-11T12:14:20.174Z,3.68
2023-02-11T12:17:29.001Z,3.66
2023-02-11T12:20:33.722Z,3.61
2023-02-11T12:23:29.014Z,3.58
2023-02-11T12:26:23.306Z,3.62
2023-02-11T12:29:42.935Z,3.66
2023-02-11T12:32:36.567Z,3.73
2023-02-11T12:35:35.312Z,3.81
2023-02-11T12:38:14.913Z,3.89
2023-02-11T12:41:22.245Z,3.92
2023-02-11T12:43:54.828Z,3.85
2023-02-11T12:46:37.309Z,3.85
2023-02-11T12:49:23.159Z,3.86
2023-02-11T12:52:25.663Z,3.91
2023-02-11T12:55:05.995Z,3.93
2023-02-11T12:57:39.118Z,3.96
2023-02-11T13:00:22.261Z,3.92
2023-02-11T13:03:13.832Z,3.91
2023-02-11T13:05:55.332Z,3.96
2023-02-11T13:08:46.322Z,4.02
2023-02-11T13:11:36.092Z,4.06
2023-02-11T13:14:16.470Z,4.05
2023-02-11T13:16:51.217Z,4.00
2023-02-11T13:19:31.510Z,4.00
2023-02-11T13:22:18.585Z,4.03
2023-02-11T13:25:06.900Z,4.07
2023-02-11T13:28:11.103Z,4.00
2023-02-11T13:30:45.199Z,3.98
2023-02-11T13:33:21.152Z,3.96
2023-02-11T13:36:04.465Z,3.91
2023-02-11T13:38:36.019Z,3.87
2023-02-11T13:41:18.279Z,3.85
2023-02-11T13:44:20.720Z,3.80
2023-02-11T13:47:02.515Z,3.76
2023-02-11T13:49:44.049Z,3.70
2023-02-11T13:52:33.955Z,3.65
2023-02-11T13:55:17.262Z,3.62
2023-02-11T13:58:17.617Z,3.67
2023-02-11T14:00:52.205Z,3.65
2023-02-11T14:03:48.558Z,3.65
2023-02-11T14:06:41.340Z,3.63
2023-02-11T14:09:21.610Z,3.63
2023-02-11T14:11:58.280Z,3.65
2023-02-11T14:14:33.597Z,3.65
2023-02-11T14:17:14.718Z,3.65
2023-02-11T14:19:49.454Z,3.64
2023-02-11T14:22:31.895Z,3.65
2023-02-11T14:25:05.918Z,3.69
2023-02-11T14:27:47.685Z,3.72
2023-02-11T14:30:36.563Z,3.71
2023-02-11T14:33:42.603Z,3.64
2023-02-11T14:36:54.627Z,3.59
2023-02-11T14:40:04.965Z,3.57
2023-02-11T14:42:38.051Z,3.52
2023-02-11T14:45:12.688Z,3.50
2023-02-11T14:48:02.876Z,3.43
2023-02-11T14:50:53.939Z,3.36
2023-02-11T14:53:27.171Z,3.29
2023-02-11T14:55:59.900Z,3.24
2023-02-11T14:58:34.573Z,3.27
2023-02-11T15:01:10.650Z,3.27
2023-02-11T15:03:47.109Z,3.24
2023-02-11T15:06:49.832Z,3.19
2023-02-11T15:09:26.335Z,3.19
2023-02-11T15:11:59.839Z,3.17
2023-02-11T15:14:55.511Z,3.17
2023-02-11T15:17:31.876Z,3.19
2023-02-11T15:20:04.388Z,3.17
2023-02-11T15:22:39.825Z,3.16
2023-02-11T15:25:16.864Z,3.10
2023-02-11T15:27:53.034Z,3.07
2023-02-11T15:30:32.245Z,3.03
2023-02-11T15:33:06.928Z,3.01
2023-02-11T15:35:42.916Z,3.00
2023-02-11T15:38:15.630Z,3.00
2023-02-11T15:40:58.585Z,3.05
2023-02-11T15:43:48.684Z,3.07
2023-02-11T15:46:42.216Z,3.06
2023-02-11T15:49:17.736Z,3.03
2023-02-11T15:51:50.805Z,3.00
2023-02-11T15:54:26.920Z,3.01
2023-02-11T15:57:08.161Z,2.95
2023-02-11T15:59:42.494Z,2.91
2023-02-11T16:02:32.125Z,2.92
2023-02-11T16:05:09.746Z,2.93
2023-02-11T16:07:53.142Z,2.90
2023-02-11T16:10:36.536Z,2.89
2023-02-11T16:13:14.066Z,2.85
2023-02-11T16:15:54.501Z,2.81
2023-02-11T16:18:40.439Z,2.79
2023-02-11T16:21:19.730Z,2.78
2023-02-11T16:23:57.746Z,2.79
2023-02-11T16:26:37.382Z,2.77
2023-02-11T16:29:22.278Z,2.78
2023-02-11T16:31:57.879Z,2.77
2023-02-11T16:34:30.446Z,2.79
2023-02-11T16:37:06.026Z,2.79
2023-02-11T16:39:38.509Z,2.78
2023-02-11T16:42:13.012Z,2.74
2023-02-11T16:44:45.586Z,2.73
2023-02-11T16:47:28.634Z,2.72
2023-02-11T16:50:01.444Z,2.72
2023-02-11T16:52:34.696Z,2.68
2023-02-11T16:55:08.793Z,2.68
2023-02-11T16:57:41.405Z,2.67
2023-02-11T17:00:17.134Z,2.65
2023-02-11T17:02:49.768Z,2.68
2023-02-11T17:05:25.312Z,2.69
2023-02-11T17:07:58.469Z,2.68
2023-02-11T17:10:30.991Z,2.70
2023-02-11T17:13:05.251Z,2.69
2023-02-11T17:15:37.967Z,2.71
2023-02-11T17:18:16.193Z,2.70
2023-02-11T17:20:48.620Z,2.70
2023-02-11T17:23:21.294Z,2.68
2023-02-11T17:25:57.997Z,2.68
2023-02-11T17:28:30.449Z,2.71
2023-02-11T17:31:03.465Z,2.73
2023-02-11T17:33:36.371Z,2.73
2023-02-11T17:36:09.933Z,2.73
2023-02-11T17:38:42.699Z,2.71
2023-02-11T17:41:15.101Z,2.70
2023-02-11T17:43:47.649Z,2.70
2023-02-11T17:46:24.616Z,2.72
2023-02-11T17:48:59.070Z,2.75
2023-02-11T17:51:34.753Z,2.74
2023-02-11T17:54:11.594Z,2.75
2023-02-11T17:56:44.274Z,2.74
2023-02-11T17:59:16.742Z,2.74
2023-02-11T18:01:49.471Z,2.75
2023-02-11T18:04:22.688Z,2.75
2023-02-11T18:07:07.554Z,2.73
2023-02-11T18:09:42.288Z,2.74
2023-02-11T18:12:17.213Z,2.74
2023-02-11T18:14:49.618Z,2.74
2023-02-11T18:17:43.797Z,2.73
2023-02-11T18:20:16.595Z,2.74
2023-02-11T18:22:48.955Z,2.75
2023-02-11T18:25:21.619Z,2.75
2023-02-11T18:27:54.947Z,2.75
2023-02-11T18:30:28.867Z,2.77
2023-02-11T18:33:01.287Z,2.78
2023-02-11T18:35:34.616Z,2.77
2023-02-11T18:38:07.084Z,2.75
2023-02-11T18:40:42.834Z,2.76
2023-02-11T18:43:16.349Z,2.72
2023-02-11T18:45:49.314Z,2.71
2023-02-11T18:48:22.566Z,2.72
2023-02-11T18:50:55.435Z,2.71
2023-02-11T18:53:27.806Z,2.72
2023-02-11T18:56:01.379Z,2.72
2023-02-11T18:58:35.238Z,2.72
2023-02-11T19:01:22.916Z,2.72
2023-02-11T19:03:58.682Z,2.74
2023-02-11T19:06:35.541Z,2.77
2023-02-11T19:09:12.901Z,2.76
2023-02-11T19:11:50.205Z,2.72
2023-02-11T19:14:31.571Z,2.70
2023-02-11T19:17:25.048Z,2.67
2023-02-11T19:19:57.490Z,2.64
2023-02-11T19:22:30.032Z,2.60
2023-02-11T19:25:02.370Z,2.60
2023-02-11T19:27:35.491Z,2.59
2023-02-11T19:30:10.040Z,2.60
2023-02-11T19:32:43.161Z,2.59
2023-02-11T19:35:15.758Z,2.56
2023-02-11T19:37:48.191Z,2.57
2023-02-11T19:40:21.491Z,2.57
2023-02-11T19:42:55.314Z,2.55
2023-02-11T19:45:28.610Z,2.56
2023-02-11T19:48:01.133Z,2.57
2023-02-11T19:50:34.170Z,2.57
2023-02-11T19:53:07.306Z,2.56
2023-02-11T19:55:46.751Z,2.51
2023-02-11T19:58:19.289Z,2.52
2023-02-11T20:00:51.856Z,2.48
2023-02-11T20:03:24.949Z,2.46
2023-02-11T20:05:57.710Z,2.43
2023-02-11T20:08:30.886Z,2.39
2023-02-11T20:11:19.941Z,2.34
2023-02-11T20:13:53.057Z,2.33
2023-02-11T20:16:41.020Z,2.34
2023-02-11T20:19:01.928Z,2.34
2023-02-11T20:21:34.820Z,2.34
2023-02-11T20:24:07.357Z,2.34
2023-02-11T20:26:42.637Z,2.34
2023-02-11T20:29:14.457Z,2.29
2023-02-11T20:31:47.030Z,2.28
2023-02-11T20:34:21.423Z,2.28
2023-02-11T20:36:54.985Z,2.27
2023-02-11T20:39:28.354Z,2.28
2023-02-11T20:42:00.833Z,2.26
2023-02-11T20:44:35.470Z,2.30
2023-02-11T20:47:08.401Z,2.32
2023-02-11T20:49:40.809Z,2.34
2023-02-11T20:52:14.002Z,2.32
2023-02-11T20:54:47.293Z,2.27
2023-02-11T20:57:31.062Z,2.19
2023-02-11T21:00:03.539Z,2.14
2023-02-11T21:02:36.021Z,2.10
2023-02-11T21:05:08.849Z,2.09
2023-02-11T21:07:42.590Z,2.10
2023-02-11T21:10:15.247Z,2.07
2023-02-11T21:12:49.929Z,2.09
2023-02-11T21:15:23.641Z,2.08
2023-02-11T21:17:56.482Z,2.08
2023-02-11T21:20:28.979Z,2.08
2023-02-11T21:23:01.986Z,2.08
2023-02-11T21:25:35.015Z,2.10
2023-02-11T21:28:07.502Z,2.11
2023-02-11T21:30:41.204Z,2.12
2023-02-11T21:33:14.714Z,2.15
2023-02-11T21:35:47.452Z,2.23
2023-02-11T21:38:20.024Z,2.24
2023-02-11T21:40:52.379Z,2.22
2023-02-11T21:43:25.105Z,2.26
2023-02-11T21:45:57.600Z,2.30
2023-02-11T21:48:30.179Z,2.32
2023-02-11T21:51:12.563Z,2.29
2023-02-11T21:53:45.043Z,2.25
2023-02-11T21:56:19.217Z,2.27
2023-02-11T21:58:54.217Z,2.29
2023-02-11T22:01:33.314Z,2.31
2023-02-11T22:04:06.018Z,2.29
2023-02-11T22:06:39.048Z,2.32
2023-02-11T22:09:12.148Z,2.35
2023-02-11T22:11:45.403Z,2.39
2023-02-11T22:14:19.180Z,2.39
2023-02-11T22:16:52.101Z,2.33
2023-02-11T22:19:25.155Z,2.32
2023-02-11T22:21:58.076Z,2.29
2023-02-11T22:24:31.875Z,2.29
2023-02-11T22:27:05.089Z,2.28
2023-02-11T22:29:38.434Z,2.34
2023-02-11T22:32:10.704Z,2.36
2023-02-11T22:34:44.097Z,2.31
2023-02-11T22:37:16.952Z,2.27
2023-02-11T22:39:49.614Z,2.25
2023-02-11T22:42:23.055Z,2.27
2023-02-11T22:44:55.489Z,2.28
2023-02-11T22:47:39.078Z,2.25
2023-02-11T22:50:12.005Z,2.23
2023-02-11T22:52:45.052Z,2.23
2023-02-11T22:55:17.579Z,2.23
2023-02-11T22:57:50.714Z,2.23
2023-02-11T23:00:23.164Z,2.29
2023-02-11T23:02:56.841Z,2.34
2023-02-11T23:05:29.580Z,2.36
2023-02-11T23:08:02.096Z,2.36
2023-02-11T23:10:36.456Z,2.37
2023-02-11T23:13:10.618Z,2.38
2023-02-11T23:15:45.486Z,2.38
2023-02-11T23:18:18.035Z,2.40
2023-02-11T23:20:50.503Z,2.41
2023-02-11T23:23:23.078Z,2.40
2023-02-11T23:25:56.129Z,2.41
2023-02-11T23:28:29.770Z,2.47
2023-02-11T23:31:02.436Z,2.49
2023-02-11T23:33:34.967Z,2.54
2023-02-11T23:36:08.675Z,2.54
2023-02-11T23:38:41.716Z,2.52
2023-02-11T23:41:14.608Z,2.50
2023-02-11T23:44:03.078Z,2.52
2023-02-11T23:46:35.633Z,2.55
2023-02-11T23:49:08.239Z,2.59
2023-02-11T23:51:41.303Z,2.59
2023-02-11T23:54:15.029Z,2.56
2023-02-11T23:56:47.516Z,2.60
2023-02-11T23:59:20.037Z,2.60
